createdAt,value
2023-10-26T00:07:22.295Z,10.30
2023-10-26T00:17:22.885Z,9.70
2023-10-26T00:27:23.470Z,10.50
2023-10-26T00:37:24.027Z,10.60
2023-10-26T00:47:24.609Z,10.70
2023-10-26T00:57:25.212Z,10.80
2023-10-26T01:07:25.768Z,11.60
2023-10-26T01:17:26.360Z,12.20
2023-10-26T01:27:26.912Z,13.10
2023-10-26T01:37:27.520Z,13.40
2023-10-26T01:47:28.062Z,14.10
2023-10-26T01:57:28.632Z,15.10
2023-10-26T02:07:29.181Z,15.30
2023-10-26T02:17:29.747Z,15.20
2023-10-26T02:27:30.339Z,15.90
2023-10-26T02:37:30.842Z,15.00
2023-10-26T02:47:31.409Z,15.50
2023-10-26T02:57:31.960Z,16.60
2023-10-26T03:07:32.481Z,17.30
2023-10-26T03:17:33.046Z,17.60
2023-10-26T03:27:33.568Z,17.20
2023-10-26T03:37:34.137Z,16.60
2023-10-26T03:47:34.717Z,15.60
2023-10-26T03:57:35.278Z,16.90
2023-10-26T04:07:35.791Z,16.90
2023-10-26T04:17:36.382Z,17.10
2023-10-26T04:27:36.918Z,15.40
2023-10-26T04:37:37.489Z,15.50
2023-10-26T04:47:45.061Z,16.50
2023-10-26T04:57:38.609Z,17.20
2023-10-26T05:07:39.104Z,17.70
2023-10-26T05:17:39.759Z,16.50
2023-10-26T05:27:40.130Z,16.30
2023-10-26T05:37:40.690Z,15.70
2023-10-26T05:47:41.228Z,15.00
2023-10-26T05:57:41.750Z,15.20
2023-10-26T06:07:42.205Z,15.10
2023-10-26T06:17:42.788Z,14.60
2023-10-26T06:27:43.214Z,13.60
2023-10-26T06:37:43.718Z,13.00
2023-10-26T06:47:44.232Z,12.70
2023-10-26T06:57:44.748Z,13.70
2023-10-26T07:07:45.243Z,14.70
2023-10-26T07:17:45.879Z,14.70
2023-10-26T07:27:46.326Z,14.30
2023-10-26T07:37:55.009Z,14.30
2023-10-26T07:47:48.241Z,14.40
2023-10-26T07:57:47.753Z,15.30
2023-10-26T08:07:48.317Z,15.40
2023-10-26T08:17:48.961Z,15.00
2023-10-26T08:27:49.918Z,16.10
2023-10-26T08:37:50.455Z,15.60
2023-10-26T08:47:50.919Z,17.50
2023-10-26T08:57:51.511Z,16.70
2023-10-26T09:07:52.189Z,15.30
2023-10-26T09:17:52.733Z,14.40
2023-10-26T09:27:53.204Z,13.10
2023-10-26T09:37:53.750Z,13.10
2023-10-26T09:47:54.541Z,13.50
2023-10-26T09:57:55.067Z,11.70
2023-10-26T10:07:55.065Z,12.40
2023-10-26T10:17:55.662Z,13.90
2023-10-26T10:27:56.220Z,14.40
2023-10-26T10:37:56.716Z,15.60
2023-10-26T10:48:04.195Z,17.00
2023-10-26T10:57:57.856Z,17.30
2023-10-26T11:07:58.435Z,17.40
2023-10-26T11:17:59.164Z,15.70
2023-10-26T11:27:59.716Z,14.40
2023-10-26T11:38:00.283Z,14.30
2023-10-26T11:48:00.733Z,14.20
2023-10-26T11:58:01.392Z,13.60
2023-10-26T12:08:01.858Z,11.40
2023-10-26T12:18:02.669Z,11.60
2023-10-26T12:28:20.034Z,9.40
2023-10-26T12:38:05.117Z,9.30
2023-10-26T12:48:04.594Z,9.20
2023-10-26T12:58:05.219Z,9.20
2023-10-26T13:08:05.681Z,9.20
2023-10-26T13:18:06.299Z,11.70
2023-10-26T13:28:06.793Z,10.90
2023-10-26T13:38:07.380Z,11.20
2023-10-26T13:48:07.887Z,11.50
2023-10-26T13:58:08.500Z,11.20
2023-10-26T14:08:08.918Z,11.30
2023-10-26T14:18:09.537Z,9.90
2023-10-26T14:28:09.973Z,11.10
2023-10-26T14:38:10.579Z,10.90
2023-10-26T14:48:11.009Z,12.80
2023-10-26T14:58:11.621Z,14.80
2023-10-26T15:08:12.049Z,11.60
2023-10-26T15:18:12.668Z,12.50
2023-10-26T15:28:13.144Z,12.70
2023-10-26T15:38:13.723Z,12.70
2023-10-26T15:48:14.158Z,14.30
2023-10-26T15:58:14.829Z,14.30
2023-10-26T16:08:15.300Z,15.00
2023-10-26T16:18:15.963Z,15.10
2023-10-26T16:28:16.464Z,15.90
2023-10-26T16:38:17.103Z,15.90
2023-10-26T16:48:24.647Z,16.80
2023-10-26T16:58:18.265Z,17.20
2023-10-26T17:08:18.799Z,18.00
2023-10-26T17:18:19.425Z,16.90
2023-10-26T17:28:19.902Z,17.30
2023-10-26T17:38:20.569Z,16.10
2023-10-26T17:48:21.052Z,16.80
2023-10-26T17:58:21.718Z,16.10
2023-10-26T18:08:22.238Z,16.30
2023-10-26T18:18:22.901Z,16.50
2023-10-26T18:28:23.383Z,15.50
2023-10-26T18:38:24.025Z,15.70
2023-10-26T18:48:24.531Z,17.60
2023-10-26T18:58:25.180Z,16.10
2023-10-26T19:08:25.664Z,17.20
2023-10-26T19:18:26.472Z,18.60
2023-10-26T19:28:27.037Z,17.60
2023-10-26T19:38:27.707Z,17.90
2023-10-26T19:48:28.271Z,17.60
2023-10-26T19:58:29.755Z,17.80
2023-10-26T20:08:29.239Z,17.40
2023-10-26T20:18:29.912Z,18.00
2023-10-26T20:28:30.480Z,16.70
2023-10-26T20:38:31.173Z,17.10
2023-10-26T20:48:31.678Z,16.90
2023-10-26T20:58:32.324Z,18.00
2023-10-26T21:08:32.824Z,15.80
2023-10-26T21:18:33.484Z,16.00
2023-10-26T21:28:34.010Z,15.50
2023-10-26T21:38:34.656Z,16.00
2023-10-26T21:48:35.170Z,17.10
2023-10-26T21:58:35.793Z,17.10
2023-10-26T22:08:36.266Z,18.20
2023-10-26T22:18:36.931Z,16.50
2023-10-26T22:28:37.438Z,16.80
2023-10-26T22:38:38.089Z,17.60
2023-10-26T22:48:45.660Z,17.50
2023-10-26T22:58:39.333Z,18.40
2023-10-26T23:08:39.824Z,18.90
2023-10-26T23:18:40.577Z,18.40
2023-10-26T23:28:41.100Z,19.70
2023-10-26T23:38:41.768Z,20.10
2023-10-26T23:48:42.309Z,22.10
2023-10-26T23:58:43.018Z,20.90
